Time;durP1;ratioP1;P1;durP2;ratioP2;P2;SDS_P1;SDS_P2;PMS_P1;PMS_P2;Temp;Humidity;BMP_temperature;BMP_pressure;BME280_temperature;BME280_humidity;BME280_pressure;Samples;Min_cycle;Max_cycle;Signal;HPM_P1;HPM_P2
2023/02/27 00:00:56;;;;;;;;;;;;;;;20.38;46.87;102183.72;5072574;28;2646;-69
2023/02/27 00:03:22;;;;;;;;;;;;;;;20.38;47.06;102177.97;5063748;28;2684;-69
2023/02/27 00:05:49;;;;;;;;;;;;;;;20.36;47.11;102181.47;5068662;28;1785;-69
2023/02/27 00:08:15;;;;;;;;;;;;;;;20.36;47.12;102178.59;5067326;28;2751;-69
2023/02/27 00:10:41;;;;;;;;;;;;;;;20.36;46.90;102175.69;5068629;28;2431;-69
2023/02/27 00:13:08;;;;;;;;;;;;;;;20.36;47.15;102175.69;5064598;28;2548;-69
2023/02/27 00:15:37;;;;;;;;;;;;;;;20.37;46.98;102182.97;5067768;28;1834;-70
2023/02/27 00:18:03;;;;;;;;;;;;;;;20.38;47.06;102178.72;5065817;28;2943;-70
2023/02/27 00:20:31;;;;;;;;;;;;;;;20.39;47.07;102182.38;5065737;28;2887;-69
2023/02/27 00:22:57;;;;;;;;;;;;;;;20.39;46.91;102171.59;5065380;28;1806;-70
2023/02/27 00:25:23;;;;;;;;;;;;;;;20.38;47.09;102178.72;5063928;28;2731;-69
2023/02/27 00:27:50;;;;;;;;;;;;;;;20.38;46.99;102167.22;5057378;28;2787;-69
2023/02/27 00:30:18;;;;;;;;;;;;;;;20.37;47.01;102171.47;5104108;27;2274;-70
2023/02/27 00:32:44;;;;;;;;;;;;;;;20.37;47.09;102171.47;5096436;27;2822;-69
2023/02/27 00:35:11;;;;;;;;;;;;;;;20.35;47.10;102174.22;5059948;28;2288;-70
2023/02/27 00:37:37;;;;;;;;;;;;;;;20.36;47.09;102161.31;5064230;28;2759;-69
2023/02/27 00:40:06;;;;;;;;;;;;;;;20.34;47.23;102166.97;5055979;28;1574;-69
2023/02/27 00:42:33;;;;;;;;;;;;;;;20.34;46.92;102169.06;5062520;28;2812;-70
2023/02/27 00:45:00;;;;;;;;;;;;;;;20.34;46.91;102171.94;5062134;28;2800;-69
2023/02/27 00:47:29;;;;;;;;;;;;;;;20.34;47.09;102166.97;5059435;28;2826;-69
2023/02/27 00:49:55;;;;;;;;;;;;;;;20.34;47.00;102172.72;5048249;28;2664;-69
2023/02/27 00:52:21;;;;;;;;;;;;;;;20.33;46.95;102153.19;5072260;28;2663;-70
2023/02/27 00:54:48;;;;;;;;;;;;;;;20.34;47.14;102166.97;5075540;28;2759;-69
2023/02/27 00:57:14;;;;;;;;;;;;;;;20.34;46.95;102166.97;5073729;28;1959;-69
2023/02/27 00:59:41;;;;;;;;;;;;;;;20.36;46.88;102172.06;5073804;28;2762;-69
2023/02/27 01:02:07;;;;;;;;;;;;;;;20.35;47.08;102165.56;5073756;28;2668;-69
2023/02/27 01:04:34;;;;;;;;;;;;;;;20.35;46.93;102156.94;5068027;28;2757;-69
2023/02/27 01:07:00;;;;;;;;;;;;;;;20.35;47.03;102165.56;5072837;28;2587;-69
2023/02/27 01:09:26;;;;;;;;;;;;;;;20.35;47.16;102161.97;5072396;28;1552;-69
2023/02/27 01:11:52;;;;;;;;;;;;;;;20.34;47.14;102157.56;5068461;28;2818;-69
2023/02/27 01:14:20;;;;;;;;;;;;;;;20.33;47.11;102164.69;5074694;28;1650;-69
2023/02/27 01:16:46;;;;;;;;;;;;;;;20.32;47.19;102163.16;5073060;28;1798;-68
2023/02/27 01:19:13;;;;;;;;;;;;;;;20.30;46.96;102153.03;5063437;28;2683;-68
2023/02/27 01:21:41;;;;;;;;;;;;;;;20.30;46.97;102149.41;5075513;28;1588;-68
2023/02/27 01:24:08;;;;;;;;;;;;;;;20.30;47.07;102158.78;5068225;28;2880;-69
2023/02/27 01:26:34;;;;;;;;;;;;;;;20.30;46.97;102153.03;5071277;28;2751;-68
2023/02/27 01:29:01;;;;;;;;;;;;;;;20.30;47.04;102155.19;5076851;28;1807;-68
2023/02/27 01:31:27;;;;;;;;;;;;;;;20.30;47.13;102158.78;5072179;28;2762;-69
2023/02/27 01:33:54;;;;;;;;;;;;;;;20.31;47.08;102156.66;5074900;28;1613;-69
2023/02/27 01:36:21;;;;;;;;;;;;;;;20.32;46.87;102155.31;5077060;28;1825;-69
2023/02/27 01:38:47;;;;;;;;;;;;;;;20.32;46.94;102152.44;5071702;28;2669;-68
2023/02/27 01:41:13;;;;;;;;;;;;;;;20.32;47.00;102155.31;5066638;28;2765;-69
2023/02/27 01:43:53;;;;;;;;;;;;;;;20.32;46.98;102160.28;5070273;28;2481;-69
2023/02/27 01:46:19;;;;;;;;;;;;;;;20.30;46.98;102155.19;5065120;28;2753;-69
2023/02/27 01:48:46;;;;;;;;;;;;;;;20.30;47.06;102155.19;5069378;28;2505;-69
2023/02/27 01:51:13;;;;;;;;;;;;;;;20.29;46.98;102147.91;5070568;28;1902;-69
2023/02/27 01:53:40;;;;;;;;;;;;;;;20.29;47.04;102153.66;5073087;28;2018;-68
2023/02/27 01:56:09;;;;;;;;;;;;;;;20.29;47.00;102159.41;5054877;28;2906;-69
2023/02/27 01:58:35;;;;;;;;;;;;;;;20.29;46.97;102154.44;5055474;28;3021;-69
2023/02/27 02:01:02;;;;;;;;;;;;;;;20.29;47.00;102160.19;5086675;28;2805;-69
2023/02/27 02:03:31;;;;;;;;;;;;;;;20.30;46.98;102155.19;5067423;28;2797;-69
2023/02/27 02:05:58;;;;;;;;;;;;;;;20.31;46.91;102150.91;5064240;28;1855;-69
2023/02/27 02:08:25;;;;;;;;;;;;;;;20.29;47.12;102154.44;5093743;27;2794;-69
2023/02/27 02:10:51;;;;;;;;;;;;;;;20.30;46.91;102160.94;5069517;28;2824;-68
2023/02/27 02:13:18;;;;;;;;;;;;;;;20.29;47.06;102151.56;5099203;27;2648;-69
2023/02/27 02:15:47;;;;;;;;;;;;;;;20.29;46.91;102159.41;5067055;28;1619;-69
2023/02/27 02:18:15;;;;;;;;;;;;;;;20.28;46.87;102163.66;5098798;27;2905;-68
2023/02/27 02:21:00;;;;;;;;;;;;;;;20.27;46.95;102159.25;5085210;27;3065;-68
2023/02/27 02:23:35;;;;;;;;;;;;;;;20.27;47.05;102165.03;5050873;28;2885;-69
2023/02/27 02:26:17;;;;;;;;;;;;;;;20.27;46.91;102157.16;5062893;28;2876;-69
2023/02/27 02:28:59;;;;;;;;;;;;;;;20.28;46.94;102152.16;5081659;27;2669;-68
2023/02/27 02:31:49;;;;;;;;;;;;;;;20.28;46.90;102152.16;5091667;27;2865;-69
2023/02/27 02:34:28;;;;;;;;;;;;;;;20.28;47.00;102163.66;5061469;28;3440;-69
2023/02/27 02:37:04;;;;;;;;;;;;;;;20.29;47.01;102159.41;5078844;28;3054;-69
2023/02/27 02:39:33;;;;;;;;;;;;;;;20.29;46.87;102162.28;5091969;27;2501;-68
2023/02/27 02:42:18;;;;;;;;;;;;;;;20.29;46.79;102162.28;5085483;27;2884;-69
2023/02/27 02:44:49;;;;;;;;;;;;;;;20.29;46.82;102160.19;5063444;28;1636;-69
2023/02/27 02:47:21;;;;;;;;;;;;;;;20.28;47.03;102164.41;5061041;28;1553;-68
2023/02/27 02:49:54;;;;;;;;;;;;;;;20.28;46.96;102157.91;5057743;28;1815;-68
2023/02/27 02:52:23;;;;;;;;;;;;;;;20.28;47.02;102166.53;5085408;27;2109;-68
2023/02/27 02:54:56;;;;;;;;;;;;;;;20.27;46.93;102167.91;5087544;28;3148;-69
2023/02/27 02:57:23;;;;;;;;;;;;;;;20.26;47.09;102172.16;5054889;28;1604;-69
2023/02/27 02:59:54;;;;;;;;;;;;;;;20.26;46.90;102177.91;5085225;28;2603;-69
2023/02/27 03:02:22;;;;;;;;;;;;;;;20.26;46.98;102183.66;5056328;28;1696;-69
2023/02/27 03:05:07;;;;;;;;;;;;;;;20.26;46.88;102177.91;5053181;28;1627;-69
2023/02/27 03:07:38;;;;;;;;;;;;;;;20.26;46.86;102166.41;5075662;28;2800;-69
2023/02/27 03:10:09;;;;;;;;;;;;;;;20.27;46.79;102167.91;5060205;28;2938;-69
2023/02/27 03:12:35;;;;;;;;;;;;;;;20.26;46.87;102172.91;5095076;27;2207;-69
2023/02/27 03:15:07;;;;;;;;;;;;;;;20.28;46.96;102180.94;5066341;28;1737;-69
2023/02/27 03:17:42;;;;;;;;;;;;;;;20.27;46.87;102179.41;5094237;28;2746;-68
2023/02/27 03:20:18;;;;;;;;;;;;;;;20.25;46.94;102179.28;5075763;28;2675;-68
2023/02/27 03:22:46;;;;;;;;;;;;;;;20.25;47.04;102180.03;5086342;28;2877;-68
2023/02/27 03:25:12;;;;;;;;;;;;;;;20.24;46.79;102181.38;5093253;28;1604;-69
2023/02/27 03:27:45;;;;;;;;;;;;;;;20.23;47.01;102191.41;5080753;28;2816;-68
2023/02/27 03:30:14;;;;;;;;;;;;;;;20.24;46.91;102203.66;5067973;28;2756;-69
2023/02/27 03:32:44;;;;;;;;;;;;;;;20.23;46.89;102202.16;5068173;28;3189;-69
2023/02/27 03:35:11;;;;;;;;;;;;;;;20.23;46.95;102199.28;5079871;28;1753;-69
2023/02/27 03:37:41;;;;;;;;;;;;;;;20.23;46.96;102205.03;5063399;28;1746;-69
2023/02/27 03:40:17;;;;;;;;;;;;;;;20.22;46.98;102200.63;5093524;28;2887;-69
2023/02/27 03:42:45;;;;;;;;;;;;;;;20.22;46.92;102203.50;5093698;28;2777;-69
2023/02/27 03:45:23;;;;;;;;;;;;;;;20.22;46.86;102209.25;5089531;28;2780;-69
2023/02/27 03:47:50;;;;;;;;;;;;;;;20.22;46.91;102206.38;5060474;28;2802;-69
2023/02/27 03:50:16;;;;;;;;;;;;;;;20.24;46.80;102210.16;5093244;28;2755;-69
2023/02/27 03:52:43;;;;;;;;;;;;;;;20.25;46.72;102213.81;5080901;28;1836;-69
2023/02/27 03:55:13;;;;;;;;;;;;;;;20.25;46.76;102213.81;5080397;28;1709;-69
2023/02/27 03:57:40;;;;;;;;;;;;;;;20.26;46.82;102212.44;5070698;28;2759;-69
2023/02/27 04:00:08;;;;;;;;;;;;;;;20.26;46.84;102218.94;5073835;28;2844;-69
2023/02/27 04:02:38;;;;;;;;;;;;;;;20.27;46.90;102228.31;5079339;28;1730;-69
2023/02/27 04:05:05;;;;;;;;;;;;;;;20.27;46.66;102222.56;5077227;28;1719;-69
2023/02/27 04:07:56;;;;;;;;;;;;;;;20.27;46.92;102234.06;5076202;28;2651;-69
2023/02/27 04:10:25;;;;;;;;;;;;;;;20.27;46.79;102234.84;5075227;28;2458;-69
2023/02/27 04:12:57;;;;;;;;;;;;;;;20.27;46.99;102234.06;5081154;28;1792;-69
2023/02/27 04:15:29;;;;;;;;;;;;;;;20.27;46.91;102231.97;5100309;27;2224;-69
2023/02/27 04:18:03;;;;;;;;;;;;;;;20.26;46.85;102233.31;5093398;27;2721;-68
2023/02/27 04:20:41;;;;;;;;;;;;;;;20.25;46.84;102233.94;5102822;27;3037;-68
2023/02/27 04:23:25;;;;;;;;;;;;;;;20.25;46.97;102228.19;5088212;27;3208;-68
2023/02/27 04:26:14;;;;;;;;;;;;;;;20.25;46.86;102236.81;5089886;27;2802;-69
2023/02/27 04:28:42;;;;;;;;;;;;;;;20.24;46.79;102238.16;5100213;27;2668;-69
2023/02/27 04:31:12;;;;;;;;;;;;;;;20.24;46.79;102238.16;5108169;27;1647;-69
2023/02/27 04:33:48;;;;;;;;;;;;;;;20.24;46.73;102243.94;5081696;28;1615;-69
2023/02/27 04:36:16;;;;;;;;;;;;;;;20.23;46.70;102248.19;5101574;27;2804;-69
2023/02/27 04:38:44;;;;;;;;;;;;;;;20.24;46.66;102241.06;5101211;27;2919;-69
2023/02/27 04:41:12;;;;;;;;;;;;;;;20.24;46.65;102249.69;5103854;27;2710;-69
2023/02/27 04:43:38;;;;;;;;;;;;;;;20.24;46.75;102243.94;5066198;28;2816;-69
2023/02/27 04:46:04;;;;;;;;;;;;;;;20.25;46.64;102246.19;5109514;27;1690;-69
2023/02/27 04:48:33;;;;;;;;;;;;;;;20.26;46.65;102252.69;5076854;28;1607;-69
2023/02/27 04:51:02;;;;;;;;;;;;;;;20.27;46.74;102248.44;5110355;27;1896;-68
2023/02/27 04:53:33;;;;;;;;;;;;;;;20.26;46.62;102255.56;5109834;27;2518;-69
2023/02/27 04:56:03;;;;;;;;;;;;;;;20.27;46.91;102259.94;5110969;27;1615;-69
2023/02/27 04:59:02;;;;;;;;;;;;;;;20.25;46.75;102259.84;5108136;27;2885;-69
2023/02/27 05:01:31;;;;;;;;;;;;;;;20.25;46.70;102257.69;5062054;28;2922;-69
2023/02/27 05:03:57;;;;;;;;;;;;;;;20.24;46.91;102256.19;5075500;28;2888;-69
2023/02/27 05:06:29;;;;;;;;;;;;;;;20.23;46.82;102254.69;5076626;28;2828;-68
2023/02/27 05:08:58;;;;;;;;;;;;;;;20.23;46.76;102259.69;5068139;28;2763;-69
2023/02/27 05:11:35;;;;;;;;;;;;;;;20.22;46.62;102256.03;5113101;27;2823;-69
2023/02/27 05:14:12;;;;;;;;;;;;;;;20.23;46.68;102262.56;5063738;28;2977;-69
2023/02/27 05:16:43;;;;;;;;;;;;;;;20.24;46.55;102258.31;5103661;27;2906;-69
2023/02/27 05:19:10;;;;;;;;;;;;;;;20.24;46.61;102266.94;5106988;27;2735;-70
2023/02/27 05:21:52;;;;;;;;;;;;;;;20.24;46.71;102250.44;5068339;28;2905;-70
2023/02/27 05:24:23;;;;;;;;;;;;;;;20.24;46.70;102252.56;5072607;28;2843;-70
2023/02/27 05:26:53;;;;;;;;;;;;;;;20.25;46.72;102254.09;5067231;28;2704;-70
2023/02/27 05:29:35;;;;;;;;;;;;;;;20.26;46.70;102246.94;5106959;27;3159;-71
2023/02/27 05:32:13;;;;;;;;;;;;;;;20.26;46.57;102252.69;5109365;27;2622;-71
2023/02/27 05:34:48;;;;;;;;;;;;;;;20.26;46.61;102253.44;5080236;28;1810;-70
2023/02/27 05:37:26;;;;;;;;;;;;;;;20.26;46.58;102259.19;5077316;28;2567;-71
2023/02/27 05:39:52;;;;;;;;;;;;;;;20.26;46.99;102258.44;5081623;28;2842;-71
2023/02/27 05:42:21;;;;;;;;;;;;;;;20.24;46.64;102258.31;5076024;28;2770;-70
2023/02/27 05:44:52;;;;;;;;;;;;;;;20.22;46.75;102261.78;5069895;28;2605;-69
2023/02/27 05:47:19;;;;;;;;;;;;;;;20.22;46.98;102272.53;5066220;28;2937;-66
2023/02/27 05:49:53;;;;;;;;;;;;;;;20.20;46.69;102267.44;5093400;27;3284;-69
2023/02/27 05:52:21;;;;;;;;;;;;;;;20.17;46.82;102270.75;5075295;28;2292;-68
2023/02/27 05:54:55;;;;;;;;;;;;;;;20.27;46.66;102277.22;5085747;27;2741;-72
2023/02/27 05:57:23;;;;;;;;;;;;;;;20.28;46.50;102279.47;5058946;28;3031;-71
2023/02/27 05:59:54;;;;;;;;;;;;;;;20.28;46.60;102284.47;5098193;27;2908;-69
2023/02/27 06:02:20;;;;;;;;;;;;;;;20.40;46.60;102291.06;5060296;28;3300;-69
2023/02/27 06:04:46;;;;;;;;;;;;;;;20.39;46.78;102301.09;5039844;28;3094;-69
2023/02/27 06:07:13;;;;;;;;;;;;;;;20.42;46.62;102299.84;5099351;27;3165;-69
2023/02/27 06:09:40;;;;;;;;;;;;;;;20.27;46.71;102311.72;5062934;28;3001;-69
2023/02/27 06:12:06;;;;;;;;;;;;;;;20.28;46.32;102307.50;5066707;28;2911;-69
2023/02/27 06:14:33;;;;;;;;;;;;;;;20.25;46.11;102314.50;5061593;28;3032;-72
2023/02/27 06:16:59;;;;;;;;;;;;;;;17.91;45.67;102325.03;5053571;28;2975;-79
2023/02/27 06:19:25;;;;;;;;;;;;;;;19.59;46.07;102320.56;5061142;28;4084;-78
2023/02/27 06:21:52;;;;;;;;;;;;;;;20.15;45.65;102320.25;5062717;28;4417;-76
2023/02/27 06:24:18;;;;;;;;;;;;;;;20.33;45.24;102315.03;5061260;28;3779;-74
2023/02/27 06:26:47;;;;;;;;;;;;;;;20.45;45.92;102318.75;5065391;28;3123;-76
2023/02/27 06:29:13;;;;;;;;;;;;;;;20.53;46.51;102327.22;5058986;28;2805;-77
2023/02/27 06:31:40;;;;;;;;;;;;;;;20.60;46.70;102326.28;5062329;28;3071;-71
2023/02/27 06:34:06;;;;;;;;;;;;;;;20.59;46.04;102330.53;5059456;28;2800;-70
2023/02/27 06:36:32;;;;;;;;;;;;;;;20.56;46.61;102325.22;5052482;28;4531;-70
2023/02/27 06:38:59;;;;;;;;;;;;;;;20.55;46.75;102326.56;5047012;28;3341;-68
2023/02/27 06:41:25;;;;;;;;;;;;;;;20.57;46.76;102321.00;5046683;28;3635;-70
2023/02/27 06:43:51;;;;;;;;;;;;;;;20.59;46.65;102329.75;5051442;28;3524;-70
2023/02/27 06:46:18;;;;;;;;;;;;;;;20.61;46.44;102327.03;5056671;28;3287;-68
2023/02/27 06:48:44;;;;;;;;;;;;;;;20.63;46.41;102327.91;5052679;28;3113;-68
2023/02/27 06:51:10;;;;;;;;;;;;;;;20.64;46.41;102337.34;5052899;28;2994;-71
2023/02/27 06:53:37;;;;;;;;;;;;;;;18.93;37.38;102327.22;5059903;28;3175;-68
2023/02/27 06:56:03;;;;;;;;;;;;;;;18.89;38.71;102329.03;5056742;28;3234;-73
2023/02/27 06:58:30;;;;;;;;;;;;;;;19.58;38.55;102334.16;5057494;28;3741;-73
2023/02/27 07:00:57;;;;;;;;;;;;;;;19.80;40.39;102332.19;5053322;28;3159;-77
2023/02/27 07:03:24;;;;;;;;;;;;;;;20.11;40.57;102334.34;5058430;28;2930;-76
2023/02/27 07:05:50;;;;;;;;;;;;;;;20.29;41.54;102332.00;5064360;28;3264;-76
2023/02/27 07:08:16;;;;;;;;;;;;;;;20.38;41.62;102334.09;5064859;28;2914;-75
2023/02/27 07:10:45;;;;;;;;;;;;;;;20.46;41.94;102331.78;5065142;28;2852;-78
2023/02/27 07:13:12;;;;;;;;;;;;;;;20.50;41.69;102329.19;5060643;28;3145;-76
2023/02/27 07:15:43;;;;;;;;;;;;;;;20.53;41.47;102335.84;5069938;28;1687;-73
2023/02/27 07:18:09;;;;;;;;;;;;;;;20.58;41.80;102339.78;5060852;28;2927;-73
2023/02/27 07:20:36;;;;;;;;;;;;;;;20.59;41.61;102358.56;5068775;28;1923;-73
2023/02/27 07:23:02;;;;;;;;;;;;;;;20.59;41.73;102364.31;5059082;28;3592;-74
2023/02/27 07:25:28;;;;;;;;;;;;;;;20.60;41.76;102371.59;5062000;28;3023;-76
2023/02/27 07:27:55;;;;;;;;;;;;;;;20.55;41.75;102378.38;5060196;28;2835;-75
2023/02/27 07:30:21;;;;;;;;;;;;;;;20.42;40.11;102374.66;5067904;28;2793;-77
2023/02/27 07:32:47;;;;;;;;;;;;;;;20.20;39.89;102370.19;5072022;28;2561;-74
2023/02/27 07:35:14;;;;;;;;;;;;;;;20.34;40.10;102362.59;5066924;28;3360;-74
2023/02/27 07:37:40;;;;;;;;;;;;;;;20.53;40.22;102379.00;5058905;28;4278;-72
2023/02/27 07:40:07;;;;;;;;;;;;;;;20.59;40.79;102387.31;5064285;28;2832;-72
2023/02/27 07:42:34;;;;;;;;;;;;;;;20.71;41.11;102388.19;5061085;28;2992;-69
2023/02/27 07:45:00;;;;;;;;;;;;;;;20.63;41.40;102390.50;5071377;28;1707;-68
2023/02/27 07:47:29;;;;;;;;;;;;;;;20.70;41.65;102386.66;5066519;28;3932;-67
2023/02/27 07:49:55;;;;;;;;;;;;;;;20.70;41.86;102392.44;5065078;28;2940;-67
2023/02/27 07:52:21;;;;;;;;;;;;;;;20.58;41.12;102391.59;5070177;28;2653;-72
2023/02/27 07:54:48;;;;;;;;;;;;;;;18.67;39.31;102396.91;5063967;28;2797;-71
2023/02/27 07:57:14;;;;;;;;;;;;;;;19.60;42.04;102391.78;5058607;28;2647;-68
2023/02/27 07:59:40;;;;;;;;;;;;;;;20.14;41.93;102393.53;5053855;28;4612;-66
2023/02/27 08:02:08;;;;;;;;;;;;;;;20.28;41.91;102388.78;5062785;28;3247;-68
2023/02/27 08:04:34;;;;;;;;;;;;;;;20.35;41.99;102392.88;5059503;28;2851;-67
2023/02/27 08:07:01;;;;;;;;;;;;;;;15.99;45.45;102395.53;5059964;28;2660;-66
2023/02/27 08:09:29;;;;;;;;;;;;;;;18.73;43.60;102394.53;5059880;28;2962;-68
2023/02/27 08:11:56;;;;;;;;;;;;;;;19.60;41.10;102394.66;5063760;28;2736;-68
2023/02/27 08:14:22;;;;;;;;;;;;;;;19.94;42.75;102395.72;5067138;28;2880;-67
2023/02/27 08:16:49;;;;;;;;;;;;;;;20.11;42.82;102391.13;5066413;28;2984;-68
2023/02/27 08:19:15;;;;;;;;;;;;;;;20.19;43.69;102397.47;5063837;28;2902;-68
2023/02/27 08:21:41;;;;;;;;;;;;;;;20.24;43.63;102399.25;5059056;28;2849;-68
2023/02/27 08:24:08;;;;;;;;;;;;;;;20.30;43.12;102400.44;5068431;28;3008;-68
2023/02/27 08:26:34;;;;;;;;;;;;;;;20.34;43.52;102402.09;5051607;28;2912;-68
2023/02/27 08:29:00;;;;;;;;;;;;;;;20.36;43.07;102411.63;5056647;28;2824;-70
2023/02/27 08:31:27;;;;;;;;;;;;;;;20.37;43.63;102407.41;5064751;28;2913;-71
2023/02/27 08:33:53;;;;;;;;;;;;;;;20.35;43.62;102409.38;5062749;28;4100;-71
2023/02/27 08:36:34;;;;;;;;;;;;;;;20.56;43.72;102400.06;5062767;28;3012;-75
2023/02/27 08:39:00;;;;;;;;;;;;;;;20.63;43.91;102399.13;5065966;28;2351;-71
2023/02/27 08:41:27;;;;;;;;;;;;;;;20.64;43.77;102403.53;5067616;28;3100;-71
2023/02/27 08:43:53;;;;;;;;;;;;;;;20.71;43.91;102405.47;5060350;28;2993;-72
2023/02/27 08:46:19;;;;;;;;;;;;;;;20.79;43.85;102413.91;5067055;28;2932;-72
2023/02/27 08:48:46;;;;;;;;;;;;;;;20.82;43.73;102404.81;5064878;28;3010;-72
2023/02/27 08:51:12;;;;;;;;;;;;;;;20.88;43.94;102408.09;5063818;28;2942;-70
2023/02/27 08:53:38;;;;;;;;;;;;;;;20.91;44.01;102406.88;5061535;28;2916;-70
2023/02/27 08:56:05;;;;;;;;;;;;;;;20.95;44.05;102405.63;5067926;28;2774;-71
2023/02/27 08:58:31;;;;;;;;;;;;;;;20.99;44.17;102411.69;5064867;28;2963;-70
2023/02/27 09:00:57;;;;;;;;;;;;;;;20.99;44.02;102417.44;5063120;28;1991;-69
2023/02/27 09:03:27;;;;;;;;;;;;;;;21.03;44.13;102409.06;5058379;28;3982;-73
2023/02/27 09:05:54;;;;;;;;;;;;;;;21.09;44.37;102418.13;5058746;28;4551;-73
2023/02/27 09:08:20;;;;;;;;;;;;;;;21.11;44.41;102413.25;5059545;28;3018;-67
2023/02/27 09:10:47;;;;;;;;;;;;;;;21.12;44.38;102414.03;5062308;28;2821;-73
2023/02/27 09:13:13;;;;;;;;;;;;;;;21.13;44.50;102415.50;5062818;28;1854;-73
2023/02/27 09:15:39;;;;;;;;;;;;;;;21.15;44.57;102418.53;5059228;28;3163;-67
2023/02/27 09:18:06;;;;;;;;;;;;;;;15.96;41.55;102410.97;5053563;28;2924;-66
2023/02/27 09:20:34;;;;;;;;;;;;;;;18.56;39.17;102415.47;5053948;28;3050;-69
2023/02/27 09:23:01;;;;;;;;;;;;;;;19.72;39.41;102419.94;5064892;28;2193;-73
2023/02/27 09:25:27;;;;;;;;;;;;;;;20.16;39.54;102418.81;5058745;28;4355;-67
2023/02/27 09:27:53;;;;;;;;;;;;;;;20.36;39.56;102428.88;5054076;28;4105;-67
2023/02/27 09:30:20;;;;;;;;;;;;;;;20.50;40.04;102427.03;5057225;28;4556;-67
2023/02/27 09:32:47;;;;;;;;;;;;;;;20.59;40.23;102428.41;5061133;28;2884;-68
2023/02/27 09:35:16;;;;;;;;;;;;;;;20.58;40.70;102444.16;5053307;28;2816;-77
2023/02/27 09:37:42;;;;;;;;;;;;;;;20.82;41.59;102439.34;5058146;28;2642;-75
2023/02/27 09:40:14;;;;;;;;;;;;;;;20.99;42.19;102437.59;5058514;28;2971;-72
2023/02/27 09:42:44;;;;;;;;;;;;;;;21.09;42.03;102446.91;5050829;28;2796;-73
2023/02/27 09:45:19;;;;;;;;;;;;;;;21.18;42.00;102440.34;5064822;28;1912;-71
2023/02/27 09:47:49;;;;;;;;;;;;;;;21.23;42.10;102439.25;5093697;27;2904;-72
2023/02/27 09:50:35;;;;;;;;;;;;;;;21.28;42.23;102438.16;5089772;27;3420;-70
2023/02/27 09:53:02;;;;;;;;;;;;;;;21.30;42.23;102434.66;5061563;28;2370;-71
2023/02/27 09:55:30;;;;;;;;;;;;;;;21.33;42.66;102445.69;5056563;28;4500;-72
2023/02/27 09:58:06;;;;;;;;;;;;;;;21.33;42.72;102436.31;5093735;28;4177;-72
2023/02/27 10:00:39;;;;;;;;;;;;;;;21.36;42.92;102443.72;5057011;28;3235;-69
2023/02/27 10:03:15;;;;;;;;;;;;;;;21.42;42.67;102443.41;5059519;28;2615;-71
2023/02/27 10:05:47;;;;;;;;;;;;;;;21.40;42.30;102443.25;5087134;28;2487;-79
2023/02/27 10:08:26;;;;;;;;;;;;;;;21.43;42.44;102442.03;5060486;28;1870;-78
2023/02/27 10:10:59;;;;;;;;;;;;;;;21.43;42.50;102439.88;5063044;28;3029;-74
2023/02/27 10:13:44;;;;;;;;;;;;;;;20.89;42.00;102455.69;5063719;28;2623;-73
2023/02/27 10:16:14;;;;;;;;;;;;;;;21.00;42.30;102454.25;5066267;28;2777;-73
2023/02/27 10:18:45;;;;;;;;;;;;;;;21.19;42.89;102441.88;5067663;28;4558;-72
2023/02/27 10:21:12;;;;;;;;;;;;;;;21.29;42.97;102448.31;5078216;28;2129;-71
2023/02/27 10:23:44;;;;;;;;;;;;;;;21.40;43.02;102451.88;5072121;28;2987;-74
2023/02/27 10:26:20;;;;;;;;;;;;;;;21.38;42.90;102457.50;5101864;27;4502;-72
2023/02/27 10:28:46;;;;;;;;;;;;;;;21.40;43.02;102454.78;5094894;27;3830;-70
2023/02/27 10:31:32;;;;;;;;;;;;;;;21.46;43.02;102458.06;5094928;27;2223;-70
2023/02/27 10:33:59;;;;;;;;;;;;;;;21.45;43.10;102445.03;5051392;28;2983;-75
2023/02/27 10:36:25;;;;;;;;;;;;;;;21.46;42.93;102452.31;5057072;28;4374;-72
2023/02/27 10:39:06;;;;;;;;;;;;;;;21.49;43.06;102453.97;5089253;27;2667;-70
2023/02/27 10:41:33;;;;;;;;;;;;;;;21.55;43.43;102448.59;5083112;27;4700;-72
2023/02/27 10:44:00;;;;;;;;;;;;;;;21.53;43.14;102448.44;5050758;28;4331;-72
2023/02/27 10:46:33;;;;;;;;;;;;;;;21.60;43.35;102450.38;5093436;27;4549;-73
2023/02/27 10:49:00;;;;;;;;;;;;;;;21.62;43.39;102453.38;5064418;28;4244;-70
2023/02/27 10:51:28;;;;;;;;;;;;;;;21.64;43.29;102459.28;5058569;28;3380;-69
2023/02/27 10:54:14;;;;;;;;;;;;;;;21.50;43.37;102458.34;5056340;28;2928;-69
2023/02/27 10:56:40;;;;;;;;;;;;;;;21.41;43.49;102462.06;5063729;28;1837;-70
2023/02/27 10:59:10;;;;;;;;;;;;;;;21.36;43.72;102454.50;5065482;28;1784;-69
2023/02/27 11:01:40;;;;;;;;;;;;;;;21.44;43.74;102461.59;5101363;27;2836;-69
2023/02/27 11:04:07;;;;;;;;;;;;;;;21.28;43.71;102461.22;5078438;27;4694;-69
2023/02/27 11:06:33;;;;;;;;;;;;;;;21.29;43.50;102462.72;5069155;28;3019;-68
2023/02/27 11:09:17;;;;;;;;;;;;;;;21.47;42.75;102457.47;5060280;28;3026;-68
2023/02/27 11:11:43;;;;;;;;;;;;;;;21.57;42.67;102457.38;5090703;27;4457;-68
2023/02/27 11:14:23;;;;;;;;;;;;;;;21.64;42.45;102458.53;5068221;28;3192;-70
2023/02/27 11:16:50;;;;;;;;;;;;;;;21.65;42.37;102449.28;5069450;28;2572;-70
2023/02/27 11:19:34;;;;;;;;;;;;;;;21.69;42.12;102446.69;5063573;28;3595;-70
2023/02/27 11:22:01;;;;;;;;;;;;;;;21.69;42.42;102443.00;5071081;28;2499;-70
2023/02/27 11:24:28;;;;;;;;;;;;;;;21.70;42.13;102441.66;5073735;28;4381;-69
2023/02/27 11:26:55;;;;;;;;;;;;;;;21.75;42.25;102444.16;5058354;28;2792;-69
2023/02/27 11:29:21;;;;;;;;;;;;;;;21.52;42.69;102449.84;5070394;28;2401;-70
2023/02/27 11:31:50;;;;;;;;;;;;;;;21.62;42.52;102441.84;5069683;28;2906;-71
2023/02/27 11:34:20;;;;;;;;;;;;;;;21.68;42.61;102442.25;5062598;28;3028;-66
2023/02/27 11:36:47;;;;;;;;;;;;;;;21.64;42.73;102442.00;5063089;28;2955;-69
2023/02/27 11:39:19;;;;;;;;;;;;;;;21.58;43.05;102435.84;5099322;28;4604;-69
2023/02/27 11:41:45;;;;;;;;;;;;;;;21.64;43.01;102450.63;5102109;28;2889;-68
2023/02/27 11:44:13;;;;;;;;;;;;;;;21.70;42.82;102445.28;5101102;28;1897;-68
2023/02/27 11:46:40;;;;;;;;;;;;;;;21.72;42.98;102445.44;5059833;28;4429;-69
2023/02/27 11:49:31;;;;;;;;;;;;;;;21.75;42.90;102438.41;5096518;28;2547;-68
2023/02/27 11:52:02;;;;;;;;;;;;;;;21.77;42.63;102434.16;5062542;28;4426;-68
2023/02/27 11:54:34;;;;;;;;;;;;;;;21.77;42.67;102434.16;5091725;27;2989;-70
2023/02/27 11:57:22;;;;;;;;;;;;;;;21.73;42.38;102438.28;5072819;28;2803;-70
2023/02/27 11:59:54;;;;;;;;;;;;;;;21.70;42.69;102436.63;5102866;27;4453;-72
2023/02/27 12:02:27;;;;;;;;;;;;;;;21.73;42.65;102435.38;5097544;27;3042;-71
2023/02/27 12:04:55;;;;;;;;;;;;;;;21.73;42.59;102435.38;5069517;28;2756;-70
2023/02/27 12:07:22;;;;;;;;;;;;;;;21.70;42.75;102433.75;5100015;27;2575;-71
2023/02/27 12:09:48;;;;;;;;;;;;;;;21.65;42.69;102431.22;5071235;28;4485;-71
2023/02/27 12:12:22;;;;;;;;;;;;;;;21.65;42.72;102431.22;5076106;28;3936;-70
2023/02/27 12:15:12;;;;;;;;;;;;;;;21.60;43.07;102427.34;5077835;28;2998;-70
2023/02/27 12:17:39;;;;;;;;;;;;;;;21.73;42.78;102428.88;5069268;28;2891;-67
2023/02/27 12:20:22;;;;;;;;;;;;;;;21.72;42.64;102433.13;5078957;28;2926;-68
2023/02/27 12:22:50;;;;;;;;;;;;;;;21.69;43.03;102440.91;5107896;27;2816;-68
2023/02/27 12:25:35;;;;;;;;;;;;;;;21.69;43.23;102432.25;5097243;27;3016;-68
2023/02/27 12:28:02;;;;;;;;;;;;;;;21.67;43.05;102429.25;5071753;28;2990;-67
2023/02/27 12:30:31;;;;;;;;;;;;;;;21.68;43.33;102430.72;5105374;27;3129;-69
2023/02/27 12:33:16;;;;;;;;;;;;;;;21.70;43.14;102427.97;5072736;28;2834;-70
2023/02/27 12:35:43;;;;;;;;;;;;;;;21.64;43.28;102430.47;5056850;28;2853;-67
2023/02/27 12:38:10;;;;;;;;;;;;;;;21.65;43.27;102426.22;5070041;28;2761;-65
2023/02/27 12:40:38;;;;;;;;;;;;;;;21.69;43.36;102432.25;5072597;28;4605;-67
2023/02/27 12:43:07;;;;;;;;;;;;;;;21.71;43.35;102435.25;5058959;28;4529;-68
2023/02/27 12:45:48;;;;;;;;;;;;;;;21.79;43.46;102431.41;5069417;28;2895;-69
2023/02/27 12:48:21;;;;;;;;;;;;;;;21.84;43.31;102422.41;5101571;27;2652;-70
2023/02/27 12:50:53;;;;;;;;;;;;;;;21.81;43.07;102429.41;5102333;27;4204;-69
2023/02/27 12:53:25;;;;;;;;;;;;;;;21.72;43.30;102433.88;5072058;28;2902;-69
2023/02/27 12:56:12;;;;;;;;;;;;;;;21.65;43.36;102423.34;5063731;28;2809;-68
2023/02/27 12:58:49;;;;;;;;;;;;;;;21.64;43.73;102429.72;5075792;28;1698;-68
2023/02/27 13:01:35;;;;;;;;;;;;;;;21.49;43.66;102433.78;5072452;28;2504;-68